createdAt,value
2022-07-30T00:07:06.811Z,20.20
2022-07-30T00:17:10.189Z,20.20
2022-07-30T00:27:12.428Z,20.20
2022-07-30T00:37:14.945Z,19.90
2022-07-30T00:47:17.126Z,19.80
2022-07-30T00:57:19.465Z,19.60
2022-07-30T01:07:20.786Z,19.50
2022-07-30T01:17:25.288Z,19.40
2022-07-30T01:38:57.931Z,19.10
2022-07-30T01:49:01.254Z,18.90
2022-07-30T01:59:07.394Z,19.00
2022-07-30T02:09:11.591Z,18.80
2022-07-30T02:19:19.470Z,18.90
2022-07-30T02:29:25.456Z,18.60
2022-07-30T02:39:29.508Z,18.60
2022-07-30T02:49:32.130Z,18.40
2022-07-30T02:59:36.214Z,18.40
2022-07-30T03:09:51.421Z,18.30
2022-07-30T03:19:58.173Z,18.20
2022-07-30T03:30:06.115Z,18.10
2022-07-30T03:40:09.694Z,18.00
2022-07-30T03:50:14.437Z,17.80
2022-07-30T04:00:19.286Z,17.80
2022-07-30T04:10:26.932Z,17.70
2022-07-30T04:20:56.872Z,17.60
2022-07-30T04:31:04.809Z,17.60
2022-07-30T04:41:11.611Z,17.60
2022-07-30T04:51:40.393Z,17.50
2022-07-30T05:01:50.937Z,17.60
2022-07-30T05:11:57.515Z,17.70
2022-07-30T05:22:01.466Z,18.00
2022-07-30T05:32:09.674Z,17.80
2022-07-30T05:42:12.552Z,18.10
2022-07-30T05:52:22.093Z,18.00
2022-07-30T06:02:28.775Z,17.90
2022-07-30T06:12:50.772Z,18.10
2022-07-30T06:22:54.094Z,18.40
2022-07-30T06:33:08.736Z,18.70
2022-07-30T06:43:10.933Z,18.80
2022-07-30T06:53:31.689Z,19.00
2022-07-30T07:15:18.726Z,19.50
2022-07-30T07:25:23.690Z,20.10
2022-07-30T07:35:26.347Z,20.90
2022-07-30T07:45:28.309Z,21.80
2022-07-30T07:55:42.770Z,22.80
2022-07-30T08:06:02.005Z,23.30
2022-07-30T08:16:30.128Z,23.90
2022-07-30T08:26:51.369Z,24.50
2022-07-30T08:36:53.531Z,24.90
2022-07-30T08:46:59.359Z,25.40
2022-07-30T08:57:17.647Z,25.80
2022-07-30T09:07:19.247Z,26.10
2022-07-30T09:17:21.753Z,25.90
2022-07-30T09:27:23.552Z,26.00
2022-07-30T09:38:06.750Z,25.60
2022-07-30T09:48:29.154Z,26.60
2022-07-30T09:58:45.624Z,27.10
2022-07-30T10:08:49.495Z,26.40
2022-07-30T10:18:51.955Z,28.10
2022-07-30T10:29:13.129Z,28.30
2022-07-30T10:39:24.853Z,28.40
2022-07-30T10:49:28.619Z,29.50
2022-07-30T11:00:04.417Z,29.20
2022-07-30T11:10:09.603Z,29.90
2022-07-30T11:20:14.928Z,30.00
2022-07-30T11:30:20.814Z,30.50
2022-07-30T11:40:27.617Z,30.20
2022-07-30T11:50:35.937Z,30.20
2022-07-30T12:00:50.095Z,30.50
2022-07-30T12:11:06.237Z,30.00
2022-07-30T12:21:18.475Z,30.90
2022-07-30T12:31:21.996Z,31.10
2022-07-30T12:41:25.433Z,30.70
2022-07-30T12:51:31.694Z,31.40
2022-07-30T13:01:50.529Z,30.20
2022-07-30T13:11:53.095Z,31.60
2022-07-30T13:21:54.433Z,31.30
2022-07-30T13:31:57.275Z,31.60
2022-07-30T13:41:59.378Z,31.40
2022-07-30T13:52:01.478Z,31.90
2022-07-30T14:02:05.804Z,31.10
2022-07-30T14:12:08.518Z,31.50
2022-07-30T14:22:10.457Z,30.80
2022-07-30T14:32:12.155Z,30.70
2022-07-30T14:42:14.376Z,31.50
2022-07-30T14:52:16.939Z,31.20
2022-07-30T15:02:21.138Z,31.50
2022-07-30T15:12:26.896Z,31.90
2022-07-30T15:22:30.559Z,31.30
2022-07-30T15:32:32.896Z,31.40
2022-07-30T15:42:34.677Z,31.80
2022-07-30T15:52:38.812Z,31.80
2022-07-30T16:02:42.596Z,31.30
2022-07-30T16:12:45.533Z,30.90
2022-07-30T16:22:48.717Z,30.60
2022-07-30T16:32:51.457Z,30.70
2022-07-30T16:42:53.358Z,30.10
2022-07-30T16:52:55.717Z,29.90
2022-07-30T17:02:57.958Z,29.30
2022-07-30T17:13:00.099Z,28.50
2022-07-30T17:23:03.292Z,28.40
2022-07-30T17:33:09.711Z,27.90
2022-07-30T17:43:13.657Z,27.60
2022-07-30T17:53:16.395Z,27.20
2022-07-30T18:03:18.513Z,26.90
2022-07-30T18:13:26.573Z,26.70
2022-07-30T18:23:34.812Z,26.30
2022-07-30T18:33:37.680Z,26.10
2022-07-30T18:43:48.161Z,25.80
2022-07-30T18:53:56.376Z,25.30
2022-07-30T19:03:58.107Z,25.00
2022-07-30T19:13:59.835Z,24.70
2022-07-30T19:24:01.695Z,24.40
2022-07-30T19:34:03.497Z,24.20
2022-07-30T19:44:06.018Z,24.00
2022-07-30T19:54:12.219Z,23.60
2022-07-30T20:04:16.759Z,23.40
2022-07-30T20:14:18.935Z,23.10
2022-07-30T20:24:21.165Z,22.90
2022-07-30T20:34:26.187Z,22.60
2022-07-30T20:44:29.553Z,22.50
2022-07-30T20:54:33.034Z,22.30
2022-07-30T21:04:35.212Z,22.10
2022-07-30T21:14:38.118Z,22.00
2022-07-30T21:24:39.853Z,21.80
2022-07-30T21:34:42.323Z,21.60
2022-07-30T21:44:45.136Z,21.30
2022-07-30T21:54:52.516Z,21.10
2022-07-30T22:04:55.815Z,21.00
2022-07-30T22:14:58.836Z,20.80
2022-07-30T22:25:03.094Z,20.70
2022-07-30T22:35:20.725Z,20.60
2022-07-30T22:45:49.236Z,20.60
2022-07-30T22:55:54.682Z,20.30
2022-07-30T23:05:57.234Z,20.20
2022-07-30T23:16:01.075Z,20.30
2022-07-30T23:26:05.878Z,20.10
2022-07-30T23:36:11.870Z,20.10
2022-07-30T23:46:16.312Z,20.00
2022-07-30T23:56:20.250Z,20.00
